Time;durP1;ratioP1;P1;durP2;ratioP2;P2;SDS_P1;SDS_P2;PMS_P1;PMS_P2;Temp;Humidity;BMP_temperature;BMP_pressure;BME280_temperature;BME280_humidity;BME280_pressure;Samples;Min_cycle;Max_cycle;Signal;HPM_P1;HPM_P2
2022/05/17 00:00:48;;;;;;;52.67;11.98;;;15.30;99.90;;;;;;5050370;28;20291;-52
2022/05/17 00:03:16;;;;;;;78.63;13.15;;;15.40;99.90;;;;;;5050405;28;20865;-52
2022/05/17 00:05:45;;;;;;;42.65;11.13;;;15.50;99.90;;;;;;5050097;28;20990;-51
2022/05/17 00:08:17;;;;;;;65.18;11.07;;;15.50;99.90;;;;;;5050946;28;20209;-51
2022/05/17 00:10:46;;;;;;;100.63;13.75;;;15.50;99.90;;;;;;5069453;28;20252;-52
2022/05/17 00:13:14;;;;;;;10.32;8.68;;;15.50;99.90;;;;;;5070505;28;20665;-51
2022/05/17 00:15:45;;;;;;;9.07;7.78;;;15.40;99.90;;;;;;5070560;28;20213;-51
2022/05/17 00:18:14;;;;;;;21.58;8.60;;;15.40;99.90;;;;;;5070705;28;20681;-51
2022/05/17 00:20:43;;;;;;;25.92;8.93;;;15.30;99.90;;;;;;5070206;28;20264;-52
2022/05/17 00:23:15;;;;;;;63.53;10.70;;;15.10;99.90;;;;;;5070053;28;20649;-51
2022/05/17 00:25:47;;;;;;;37.63;9.53;;;15.00;99.90;;;;;;5070878;28;20236;-51
2022/05/17 00:28:16;;;;;;;17.83;9.57;;;14.90;99.90;;;;;;5070650;28;20292;-52
2022/05/17 00:30:44;;;;;;;10.77;9.52;;;15.00;99.90;;;;;;5070230;28;20879;-51
2022/05/17 00:33:12;;;;;;;12.47;10.13;;;15.00;99.90;;;;;;5070110;28;20284;-52
2022/05/17 00:35:40;;;;;;;10.47;9.47;;;15.00;99.90;;;;;;5069217;28;20708;-51
2022/05/17 00:38:08;;;;;;;10.13;9.03;;;14.90;99.90;;;;;;5070313;28;20259;-51
2022/05/17 00:40:36;;;;;;;14.30;9.43;;;14.90;99.90;;;;;;5070267;28;20298;-51
2022/05/17 00:43:08;;;;;;;10.37;9.30;;;14.90;99.90;;;;;;5069509;28;20240;-51
2022/05/17 00:45:40;;;;;;;9.67;8.53;;;14.80;99.90;;;;;;5070240;28;20209;-51
2022/05/17 00:48:09;;;;;;;10.33;9.27;;;14.70;99.90;;;;;;5070513;28;20185;-51
2022/05/17 00:50:42;;;;;;;10.33;9.33;;;14.60;99.90;;;;;;5069741;28;20245;-51
2022/05/17 00:53:18;;;;;;;10.07;8.90;;;14.50;99.90;;;;;;5069680;28;20235;-51
2022/05/17 00:55:51;;;;;;;8.90;8.03;;;14.40;99.90;;;;;;5069425;28;20645;-51
2022/05/17 00:58:24;;;;;;;10.70;9.60;;;14.30;99.90;;;;;;5070124;28;20228;-51
2022/05/17 01:01:02;;;;;;;9.63;8.77;;;14.30;99.90;;;;;;5069741;28;20228;-51
2022/05/17 01:03:34;;;;;;;10.53;9.53;;;14.20;99.90;;;;;;5069592;28;20681;-51
2022/05/17 01:06:03;;;;;;;9.67;8.77;;;14.10;99.90;;;;;;5069856;28;20212;-51
2022/05/17 01:08:31;;;;;;;10.03;9.00;;;14.10;99.90;;;;;;5052575;28;20206;-51
2022/05/17 01:10:59;;;;;;;10.70;9.60;;;14.10;99.90;;;;;;5071161;28;20896;-51
2022/05/17 01:16:14;;;;;;;12.67;9.93;;;13.90;99.90;;;;;;5069551;28;20227;-51
2022/05/17 01:18:43;;;;;;;10.90;9.80;;;13.90;99.90;;;;;;5069480;28;20205;-51
2022/05/17 01:21:14;;;;;;;13.77;9.37;;;13.90;99.90;;;;;;5069902;28;20286;-51
2022/05/17 01:23:42;;;;;;;18.00;11.07;;;13.90;99.90;;;;;;5069102;28;20259;-51
2022/05/17 01:26:15;;;;;;;33.37;10.27;;;13.80;99.90;;;;;;5069748;28;20216;-52
2022/05/17 01:28:43;;;;;;;45.43;11.30;;;13.90;99.90;;;;;;5069476;28;20280;-51
2022/05/17 01:31:11;;;;;;;98.60;14.83;;;13.90;99.90;;;;;;5069811;28;20205;-51
2022/05/17 01:33:40;;;;;;;12.30;11.00;;;13.90;99.90;;;;;;5068769;28;20326;-51
2022/05/17 01:36:11;;;;;;;11.93;10.60;;;13.90;99.90;;;;;;5069419;28;20208;-51
2022/05/17 01:38:40;;;;;;;12.37;11.07;;;13.90;99.90;;;;;;5069161;28;20270;-52
2022/05/17 01:41:09;;;;;;;17.63;10.40;;;13.80;99.90;;;;;;5060319;28;20263;-52
2022/05/17 01:43:37;;;;;;;131.40;15.10;;;13.80;99.90;;;;;;5053876;28;20712;-52
2022/05/17 01:46:07;;;;;;;134.23;13.87;;;13.80;99.90;;;;;;5069332;28;20259;-51
2022/05/17 01:48:35;;;;;;;84.20;12.00;;;13.80;99.90;;;;;;5069623;28;20292;-52
2022/05/17 01:51:05;;;;;;;57.50;12.10;;;13.90;99.90;;;;;;5068781;28;20196;-51
2022/05/17 01:53:34;;;;;;;42.17;10.67;;;13.80;99.90;;;;;;5068990;28;20204;-52
2022/05/17 01:56:04;;;;;;;18.23;12.07;;;13.80;99.90;;;;;;5069003;28;20201;-52
2022/05/17 01:58:32;;;;;;;15.17;12.47;;;13.80;99.90;;;;;;5069338;28;20560;-52
2022/05/17 02:01:01;;;;;;;15.03;13.30;;;13.70;99.90;;;;;;5068837;28;20229;-52
2022/05/17 02:03:29;;;;;;;15.17;13.50;;;13.60;99.90;;;;;;5068873;28;20750;-51
2022/05/17 02:05:57;;;;;;;17.67;14.67;;;13.60;99.90;;;;;;5069404;28;20205;-52
2022/05/17 02:08:25;;;;;;;18.63;15.00;;;13.50;99.90;;;;;;5073372;28;20287;-52
2022/05/17 02:10:54;;;;;;;18.23;16.17;;;13.40;99.90;;;;;;5053252;28;20271;-51
2022/05/17 02:13:23;;;;;;;19.27;16.33;;;13.30;99.90;;;;;;5052650;28;20256;-51
2022/05/17 02:15:51;;;;;;;18.63;15.80;;;13.30;99.90;;;;;;5052934;28;20240;-51
2022/05/17 02:18:19;;;;;;;18.27;16.33;;;13.30;99.90;;;;;;5052215;28;20278;-51
2022/05/17 02:20:47;;;;;;;15.63;14.07;;;13.30;99.90;;;;;;5052732;28;20229;-52
2022/05/17 02:23:15;;;;;;;15.07;13.47;;;13.30;99.90;;;;;;5052379;28;20579;-51
2022/05/17 02:25:43;;;;;;;15.20;13.60;;;13.30;99.90;;;;;;5053107;28;20233;-51
2022/05/17 02:28:11;;;;;;;20.37;12.50;;;13.30;99.90;;;;;;5052753;28;20205;-51
2022/05/17 02:30:43;;;;;;;25.27;11.17;;;13.30;99.90;;;;;;5052511;28;20257;-51
2022/05/17 02:33:12;;;;;;;18.43;12.60;;;13.30;99.90;;;;;;5052590;28;20198;-51
2022/05/17 02:35:41;;;;;;;19.50;11.20;;;13.30;99.90;;;;;;5052398;28;20878;-51
2022/05/17 02:38:10;;;;;;;15.63;13.33;;;13.20;99.90;;;;;;5052633;28;20670;-51
2022/05/17 02:40:39;;;;;;;15.20;13.43;;;13.20;99.90;;;;;;5070163;28;20318;-51
2022/05/17 02:43:07;;;;;;;15.63;14.03;;;13.20;99.90;;;;;;5085251;28;20204;-51
2022/05/17 02:45:35;;;;;;;15.43;13.73;;;13.20;99.90;;;;;;5057528;28;20268;-51
2022/05/17 02:48:05;;;;;;;15.77;14.07;;;13.30;99.90;;;;;;5052615;28;20206;-51
2022/05/17 02:50:33;;;;;;;17.87;13.60;;;13.30;99.90;;;;;;5066038;28;20216;-51
2022/05/17 02:53:01;;;;;;;16.10;14.33;;;13.40;99.90;;;;;;5072191;28;20241;-53
2022/05/17 02:55:29;;;;;;;23.30;14.37;;;13.40;99.90;;;;;;5072385;28;20201;-53
2022/05/17 02:57:58;;;;;;;23.60;16.17;;;13.40;99.90;;;;;;5072522;28;20243;-51
2022/05/17 03:00:26;;;;;;;30.87;16.20;;;13.40;99.90;;;;;;5071711;28;20267;-51
2022/05/17 03:02:54;;;;;;;139.70;20.60;;;13.50;99.90;;;;;;5071521;28;20678;-51
2022/05/17 03:05:24;;;;;;;22.23;16.63;;;13.50;99.90;;;;;;5072183;28;20263;-51
2022/05/17 03:07:52;;;;;;;25.07;19.83;;;13.40;99.90;;;;;;5072052;28;20212;-50
2022/05/17 03:10:21;;;;;;;20.63;17.43;;;13.30;99.90;;;;;;5072163;28;20271;-51
2022/05/17 03:12:49;;;;;;;19.97;17.13;;;13.30;99.90;;;;;;5071640;28;20216;-51
2022/05/17 03:15:20;;;;;;;18.77;16.00;;;13.20;99.90;;;;;;5072483;28;20244;-51
2022/05/17 03:17:50;;;;;;;24.67;19.10;;;13.10;99.90;;;;;;5071694;28;20280;-51
2022/05/17 03:20:18;;;;;;;22.47;18.20;;;13.10;99.90;;;;;;5072480;28;20233;-51
2022/05/17 03:22:47;;;;;;;20.23;18.03;;;13.10;99.90;;;;;;5069357;28;20205;-51
2022/05/17 03:25:15;;;;;;;22.97;17.67;;;13.10;99.90;;;;;;5071829;28;20263;-50
2022/05/17 03:27:53;;;;;;;19.87;17.63;;;13.10;99.90;;;;;;5072349;28;20196;-51
2022/05/17 03:30:21;;;;;;;20.20;16.87;;;13.10;99.90;;;;;;5071652;28;20236;-51
2022/05/17 03:32:49;;;;;;;20.77;17.57;;;13.10;99.90;;;;;;5071858;28;20213;-51
2022/05/17 03:35:18;;;;;;;25.70;18.27;;;13.00;99.90;;;;;;5071649;28;20247;-52
2022/05/17 03:37:48;;;;;;;25.00;20.13;;;13.00;99.90;;;;;;5051702;28;20214;-51
2022/05/17 03:40:17;;;;;;;26.67;20.47;;;13.00;99.90;;;;;;5053368;28;20279;-51
2022/05/17 03:42:45;;;;;;;23.37;19.60;;;13.00;99.90;;;;;;5070958;28;20274;-51
2022/05/17 03:45:14;;;;;;;23.70;19.43;;;13.00;99.90;;;;;;5071502;28;20696;-51
2022/05/17 03:47:42;;;;;;;21.53;17.83;;;13.00;99.90;;;;;;5071514;28;20252;-51
2022/05/17 03:50:12;;;;;;;23.63;18.47;;;13.10;99.90;;;;;;5071330;28;20216;-51
2022/05/17 03:52:40;;;;;;;23.07;18.70;;;13.00;99.90;;;;;;5071207;28;20213;-51
2022/05/17 03:55:11;;;;;;;22.40;17.27;;;13.10;99.90;;;;;;5071294;28;20629;-51
2022/05/17 03:57:39;;;;;;;20.23;17.50;;;13.10;99.90;;;;;;5072683;28;20189;-51
2022/05/17 04:00:08;;;;;;;17.80;15.80;;;13.10;99.90;;;;;;5071787;28;20672;-51
2022/05/17 04:02:37;;;;;;;24.13;16.57;;;13.20;99.90;;;;;;5070683;28;20264;-51
2022/05/17 04:05:06;;;;;;;45.73;17.83;;;13.30;99.90;;;;;;5071127;28;20220;-51
2022/05/17 04:07:34;;;;;;;22.53;16.37;;;13.20;99.90;;;;;;5070921;28;20237;-51
2022/05/17 04:10:03;;;;;;;24.87;18.90;;;13.20;99.90;;;;;;5070587;28;20225;-51
2022/05/17 04:12:33;;;;;;;24.43;19.40;;;13.40;99.90;;;;;;5070883;28;20208;-51
2022/05/17 04:15:01;;;;;;;26.07;20.93;;;13.50;99.90;;;;;;5070806;28;20235;-52
2022/05/17 04:17:29;;;;;;;25.03;20.47;;;13.50;99.90;;;;;;5070279;28;20216;-51
2022/05/17 04:19:59;;;;;;;26.37;21.07;;;13.60;99.90;;;;;;5070755;28;20229;-51
2022/05/17 04:22:27;;;;;;;28.67;22.33;;;13.60;99.90;;;;;;5070331;28;20260;-51
2022/05/17 04:24:55;;;;;;;35.30;22.93;;;13.70;99.90;;;;;;5070503;28;20254;-51
2022/05/17 04:27:24;;;;;;;31.10;22.27;;;13.70;99.90;;;;;;5070853;28;20205;-51
2022/05/17 04:29:53;;;;;;;29.10;22.53;;;13.70;99.90;;;;;;5053610;28;20259;-51
2022/05/17 04:32:21;;;;;;;30.03;21.90;;;13.60;99.90;;;;;;5050101;28;20205;-51
2022/05/17 04:34:49;;;;;;;29.10;21.53;;;13.70;99.90;;;;;;5050201;28;20209;-51
2022/05/17 04:37:17;;;;;;;52.13;26.00;;;13.70;99.90;;;;;;5050147;28;20214;-52
2022/05/17 04:39:45;;;;;;;32.27;22.30;;;13.70;99.90;;;;;;5050580;28;20233;-50
2022/05/17 04:42:13;;;;;;;45.53;25.60;;;13.90;99.90;;;;;;5048560;28;20257;-50
2022/05/17 04:44:41;;;;;;;50.10;24.60;;;14.00;99.90;;;;;;5049885;28;20251;-51
2022/05/17 04:47:11;;;;;;;37.73;23.70;;;14.00;99.90;;;;;;5050159;28;20213;-51
2022/05/17 04:49:39;;;;;;;35.53;22.67;;;14.00;99.90;;;;;;5057227;28;20248;-51
2022/05/17 04:52:08;;;;;;;51.87;24.87;;;14.10;99.90;;;;;;5070043;28;20247;-51
2022/05/17 04:54:36;;;;;;;33.33;22.93;;;14.00;99.90;;;;;;5070151;28;20217;-51
2022/05/17 04:57:05;;;;;;;38.70;23.80;;;14.00;99.90;;;;;;5070055;28;20564;-51
2022/05/17 04:59:33;;;;;;;40.03;24.17;;;13.90;99.90;;;;;;5070327;28;20228;-52
2022/05/17 05:02:01;;;;;;;37.93;23.77;;;14.00;99.90;;;;;;5069641;28;20220;-51
2022/05/17 05:04:30;;;;;;;38.93;25.00;;;14.10;99.90;;;;;;5069827;28;20211;-51
2022/05/17 05:06:59;;;;;;;32.43;23.77;;;14.00;99.90;;;;;;5070063;28;20647;-50
2022/05/17 05:09:27;;;;;;;35.37;21.00;;;14.10;99.90;;;;;;5069448;28;20251;-51
2022/05/17 05:11:55;;;;;;;34.60;21.23;;;14.10;99.90;;;;;;5069272;28;20700;-51
2022/05/17 05:14:23;;;;;;;73.63;24.50;;;14.20;99.90;;;;;;5069497;28;20669;-51
2022/05/17 05:16:51;;;;;;;31.83;20.27;;;14.10;99.90;;;;;;5069784;28;20232;-51
2022/05/17 05:19:19;;;;;;;89.77;22.93;;;14.20;99.90;;;;;;5069969;28;20282;-51
2022/05/17 05:21:49;;;;;;;69.37;21.00;;;14.20;99.90;;;;;;5069213;28;20224;-51
2022/05/17 05:24:17;;;;;;;61.27;20.50;;;14.30;99.90;;;;;;5069675;28;20296;-51
2022/05/17 05:26:45;;;;;;;122.13;25.93;;;14.30;99.90;;;;;;5069417;28;20626;-51
2022/05/17 05:29:13;;;;;;;31.57;20.73;;;14.40;99.90;;;;;;5070088;28;20231;-51
2022/05/17 05:31:41;;;;;;;37.77;22.87;;;14.40;99.90;;;;;;5069534;28;20587;-51
2022/05/17 05:34:10;;;;;;;31.53;21.47;;;14.50;99.90;;;;;;5069862;28;20216;-51
2022/05/17 05:36:38;;;;;;;56.53;23.37;;;14.50;99.90;;;;;;5069151;28;20255;-51
2022/05/17 05:39:08;;;;;;;110.67;26.50;;;14.70;99.90;;;;;;5070143;28;20225;-51
2022/05/17 05:41:37;;;;;;;78.20;23.40;;;15.00;99.90;;;;;;5068328;28;20209;-51
2022/05/17 05:44:06;;;;;;;48.73;23.77;;;15.30;99.90;;;;;;5069188;28;20235;-51
2022/05/17 05:46:34;;;;;;;103.32;23.40;;;15.60;99.90;;;;;;5069413;28;20257;-51
2022/05/17 05:49:02;;;;;;;46.28;22.15;;;15.80;99.90;;;;;;5069568;28;20236;-52
2022/05/17 05:51:31;;;;;;;163.93;28.63;;;15.80;99.90;;;;;;5069852;28;20217;-52
2022/05/17 05:53:59;;;;;;;89.07;23.02;;;15.90;99.90;;;;;;5069149;28;20264;-53
2022/05/17 05:56:28;;;;;;;69.38;21.08;;;16.00;99.90;;;;;;5069367;28;20720;-53
2022/05/17 05:58:56;;;;;;;81.35;23.52;;;16.00;99.90;;;;;;5069231;28;20707;-53
2022/05/17 06:01:26;;;;;;;95.82;22.25;;;16.00;99.90;;;;;;5068547;28;20262;-51
2022/05/17 06:03:54;;;;;;;97.53;19.65;;;16.00;99.90;;;;;;5069017;28;20285;-50
2022/05/17 06:06:22;;;;;;;77.75;20.17;;;16.00;99.90;;;;;;5069096;28;20251;-51
2022/05/17 06:08:51;;;;;;;66.47;19.13;;;16.10;99.90;;;;;;5069424;28;20229;-51
2022/05/17 06:11:19;;;;;;;117.53;20.13;;;16.10;99.90;;;;;;5069073;28;20240;-50
2022/05/17 06:13:49;;;;;;;112.75;21.38;;;16.10;99.90;;;;;;5068764;28;20262;-51
2022/05/17 06:16:17;;;;;;;77.93;19.45;;;16.10;99.90;;;;;;5068978;28;20753;-50
2022/05/17 06:18:46;;;;;;;102.13;22.05;;;16.20;99.90;;;;;;5069022;28;20678;-51
2022/05/17 06:21:14;;;;;;;147.88;21.00;;;16.30;99.90;;;;;;5069164;28;20205;-50
2022/05/17 06:23:42;;;;;;;52.63;18.80;;;16.40;99.90;;;;;;5063907;28;20279;-51
2022/05/17 06:26:10;;;;;;;58.15;19.90;;;16.50;99.90;;;;;;5048887;28;20275;-51
2022/05/17 06:28:38;;;;;;;28.25;16.92;;;16.60;99.90;;;;;;5048730;28;20256;-50
2022/05/17 06:31:07;;;;;;;78.22;18.55;;;16.80;99.90;;;;;;5049224;28;20214;-51
2022/05/17 06:33:36;;;;;;;131.48;19.17;;;16.90;99.90;;;;;;5049172;28;20847;-51
2022/05/17 06:36:04;;;;;;;76.57;18.65;;;16.90;99.90;;;;;;5048959;28;20252;-51
2022/05/17 06:38:32;;;;;;;67.53;19.45;;;17.10;99.90;;;;;;5048509;28;20686;-51
2022/05/17 06:41:01;;;;;;;43.88;18.38;;;17.20;99.90;;;;;;5047909;28;20234;-51
2022/05/17 06:43:29;;;;;;;63.58;18.83;;;17.20;99.90;;;;;;5049379;28;20272;-51
2022/05/17 06:45:57;;;;;;;212.45;24.95;;;17.40;99.90;;;;;;5050205;28;20255;-51
2022/05/17 06:48:26;;;;;;;48.42;16.50;;;17.40;99.90;;;;;;5055436;28;20356;-51
2022/05/17 06:50:54;;;;;;;75.50;20.13;;;17.70;99.90;;;;;;5068255;28;20229;-51
2022/05/17 06:53:22;;;;;;;52.15;15.85;;;17.70;99.90;;;;;;5070215;28;20294;-51
2022/05/17 06:55:50;;;;;;;31.13;17.25;;;17.80;99.90;;;;;;5072265;28;20283;-51
2022/05/17 06:58:18;;;;;;;27.10;18.88;;;18.00;99.90;;;;;;5071848;28;20212;-51
2022/05/17 07:00:46;;;;;;;31.70;18.30;;;18.30;99.90;;;;;;5071617;28;20229;-51
2022/05/17 07:03:15;;;;;;;34.33;22.23;;;18.20;99.90;;;;;;5071287;28;20721;-51
2022/05/17 07:05:44;;;;;;;20.40;17.17;;;18.20;99.90;;;;;;5072101;28;20270;-51
2022/05/17 07:08:12;;;;;;;27.15;20.10;;;18.50;99.90;;;;;;5072320;28;20652;-51
2022/05/17 07:13:26;;;;;;;27.35;19.80;;;18.60;99.90;;;;;;5071293;28;20678;-51
2022/05/17 07:15:56;;;;;;;30.90;23.88;;;19.10;99.90;;;;;;5071638;28;20233;-51
2022/05/17 07:18:26;;;;;;;27.13;20.70;;;19.40;99.90;;;;;;5071947;28;20586;-51
2022/05/17 07:20:58;;;;;;;28.55;20.20;;;19.30;99.90;;;;;;5072051;28;20225;-51
2022/05/17 07:23:27;;;;;;;27.15;21.80;;;19.70;99.90;;;;;;5071486;28;20236;-51
2022/05/17 07:25:56;;;;;;;27.42;20.95;;;19.70;99.90;;;;;;5071734;28;20304;-51
2022/05/17 07:28:24;;;;;;;28.83;21.95;;;20.10;99.90;;;;;;5071842;28;20320;-52
2022/05/17 07:30:53;;;;;;;28.20;23.20;;;20.10;99.90;;;;;;5055470;28;20647;-51
2022/05/17 07:33:21;;;;;;;29.20;22.90;;;20.40;99.90;;;;;;5068489;28;20262;-51
2022/05/17 07:35:50;;;;;;;27.85;22.45;;;20.30;99.90;;;;;;5071369;28;20649;-52
2022/05/17 07:38:19;;;;;;;23.70;20.67;;;20.50;99.90;;;;;;5071138;28;20270;-52
2022/05/17 07:40:49;;;;;;;26.33;20.58;;;20.40;99.90;;;;;;5071167;28;20264;-51
2022/05/17 07:43:18;;;;;;;27.98;22.77;;;20.90;99.90;;;;;;5070624;28;20732;-52
2022/05/17 07:45:49;;;;;;;29.98;23.52;;;21.20;99.90;;;;;;5071346;28;20243;-52
2022/05/17 07:48:18;;;;;;;31.83;23.23;;;21.60;99.90;;;;;;5065757;28;20205;-52
2022/05/17 07:50:47;;;;;;;27.45;21.35;;;21.60;99.90;;;;;;5066778;28;20268;-51
2022/05/17 07:53:17;;;;;;;24.85;21.60;;;21.90;99.90;;;;;;5070754;28;20228;-52
2022/05/17 07:55:48;;;;;;;26.25;21.52;;;21.50;99.90;;;;;;5066560;28;20214;-50
2022/05/17 07:58:16;;;;;;;26.88;22.33;;;21.40;99.90;;;;;;5051488;28;20253;-51
2022/05/17 08:00:44;;;;;;;27.95;22.13;;;21.60;99.90;;;;;;5050565;28;20857;-51
2022/05/17 08:03:15;;;;;;;28.20;21.30;;;21.50;99.90;;;;;;5050477;28;20230;-52
2022/05/17 08:05:44;;;;;;;31.33;24.20;;;21.40;99.90;;;;;;5049740;28;20190;-51
2022/05/17 08:08:12;;;;;;;31.00;23.02;;;21.50;99.90;;;;;;5050876;28;20638;-51
2022/05/17 08:10:40;;;;;;;29.33;24.02;;;21.30;99.90;;;;;;5069202;28;20260;-51
2022/05/17 08:13:10;;;;;;;31.02;24.30;;;21.40;99.90;;;;;;5062596;28;20239;-51
2022/05/17 08:15:38;;;;;;;30.55;24.30;;;21.60;99.90;;;;;;5050523;28;20240;-51
2022/05/17 08:18:07;;;;;;;28.08;22.77;;;21.60;99.90;;;;;;5049577;28;20209;-51
2022/05/17 08:20:50;;;;;;;25.33;20.50;;;21.60;99.90;;;;;;5050674;28;20262;-51
2022/05/17 08:23:18;;;;;;;29.05;22.42;;;21.40;99.90;;;;;;5049080;28;20229;-51
2022/05/17 08:28:33;;;;;;;29.83;22.35;;;21.20;99.90;;;;;;5069972;28;20240;-51
2022/05/17 08:31:01;;;;;;;27.92;21.83;;;21.20;99.90;;;;;;5070506;28;20229;-52
2022/05/17 08:33:30;;;;;;;25.83;20.15;;;21.40;99.90;;;;;;5070088;28;20212;-51
2022/05/17 08:36:00;;;;;;;26.33;21.45;;;21.60;99.90;;;;;;5070367;28;20236;-51
2022/05/17 08:38:33;;;;;;;27.77;21.38;;;21.80;99.90;;;;;;5070280;28;20252;-52
2022/05/17 08:41:25;;;;;;;29.38;21.20;;;21.80;99.90;;;;;;5069592;28;20205;-51
2022/05/17 08:43:57;;;;;;;26.13;18.33;;;21.90;99.90;;;;;;5069982;28;20224;-52
2022/05/17 08:46:32;;;;;;;20.00;16.92;;;22.00;99.90;;;;;;5070257;28;20331;-51
2022/05/17 08:49:05;;;;;;;23.00;17.17;;;21.90;99.90;;;;;;5059871;28;20217;-51
2022/05/17 08:51:38;;;;;;;22.13;17.83;;;22.00;99.90;;;;;;5069978;28;20227;-51
2022/05/17 08:54:10;;;;;;;22.50;18.58;;;22.00;99.90;;;;;;5069758;28;20205;-51
2022/05/17 08:56:43;;;;;;;22.05;17.95;;;22.10;99.90;;;;;;5070124;28;20250;-51
2022/05/17 08:59:18;;;;;;;21.33;17.90;;;22.10;99.90;;;;;;5069892;28;20303;-51
2022/05/17 09:01:50;;;;;;;23.95;17.52;;;22.20;99.90;;;;;;5069634;28;20287;-51
2022/05/17 09:04:36;;;;;;;27.45;19.17;;;22.20;99.90;;;;;;5069979;28;20224;-51
2022/05/17 09:07:14;;;;;;;21.00;17.38;;;22.30;99.90;;;;;;5069298;28;20236;-51
2022/05/17 09:09:56;;;;;;;25.00;18.35;;;22.40;99.90;;;;;;5069538;28;20221;-51
2022/05/17 09:12:33;;;;;;;19.67;15.60;;;22.60;99.90;;;;;;5070041;28;20192;-51
2022/05/17 09:15:02;;;;;;;19.75;16.05;;;22.70;99.90;;;;;;5068197;28;20733;-51
2022/05/17 09:17:31;;;;;;;19.02;15.13;;;22.90;99.90;;;;;;5069811;28;20262;-52
2022/05/17 09:19:59;;;;;;;22.02;16.73;;;22.70;99.90;;;;;;5069295;28;20705;-51
2022/05/17 09:22:27;;;;;;;19.30;15.18;;;22.50;99.90;;;;;;5069496;28;20232;-51
2022/05/17 09:24:59;;;;;;;19.08;13.02;;;22.30;99.90;;;;;;5069550;28;20231;-51
2022/05/17 09:27:29;;;;;;;20.60;13.90;;;22.20;99.90;;;;;;5069871;28;20626;-51
2022/05/17 09:30:06;;;;;;;18.10;16.15;;;22.30;99.90;;;;;;5071042;28;20768;-50
2022/05/17 09:32:38;;;;;;;24.17;16.30;;;22.50;99.90;;;;;;5075172;28;20197;-50
2022/05/17 09:35:12;;;;;;;20.02;16.17;;;22.70;99.90;;;;;;5073552;28;20282;-51
2022/05/17 09:37:44;;;;;;;22.38;16.70;;;22.90;99.90;;;;;;5069427;28;20217;-51
2022/05/17 09:40:15;;;;;;;21.20;16.15;;;22.90;99.90;;;;;;5069446;28;20268;-51
2022/05/17 09:42:51;;;;;;;21.92;16.70;;;22.90;99.90;;;;;;5068529;28;20625;-51
2022/05/17 09:45:36;;;;;;;19.63;16.40;;;23.10;99.90;;;;;;5069236;28;20232;-51
2022/05/17 09:48:07;;;;;;;18.67;13.90;;;23.00;99.90;;;;;;5069216;28;20227;-51
2022/05/17 09:53:41;;;;;;;15.63;11.57;;;23.30;99.90;;;;;;5068790;28;20681;-51
2022/05/17 09:56:10;;;;;;;17.05;12.02;;;23.20;99.90;;;;;;5069549;28;20250;-51
2022/05/17 09:58:40;;;;;;;17.15;12.10;;;23.10;99.90;;;;;;5069004;28;20366;-51
2022/05/17 10:01:14;;;;;;;13.48;12.02;;;23.20;99.90;;;;;;5069171;28;20217;-51
2022/05/17 10:03:44;;;;;;;19.52;12.43;;;23.30;99.90;;;;;;5068451;28;20279;-51
2022/05/17 10:06:16;;;;;;;18.55;13.13;;;23.50;99.90;;;;;;5068295;28;20670;-51
2022/05/17 10:08:57;;;;;;;14.38;10.13;;;23.70;99.90;;;;;;5067252;28;20251;-51
2022/05/17 10:11:28;;;;;;;15.50;11.13;;;23.80;99.90;;;;;;5049265;28;20221;-51
2022/05/17 10:14:14;;;;;;;15.95;11.13;;;24.10;99.90;;;;;;5047356;28;20205;-51
2022/05/17 10:16:48;;;;;;;17.10;11.77;;;24.10;99.90;;;;;;5048745;28;20205;-51
2022/05/17 10:19:28;;;;;;;14.38;10.10;;;24.10;99.90;;;;;;5048923;28;20729;-51
2022/05/17 10:22:02;;;;;;;21.13;10.18;;;24.10;99.90;;;;;;5048169;28;20233;-51
2022/05/17 10:24:41;;;;;;;13.02;10.38;;;24.20;99.90;;;;;;5048772;28;20229;-51
2022/05/17 10:27:16;;;;;;;15.93;11.30;;;24.10;99.90;;;;;;5048215;28;20205;-51
2022/05/17 10:29:47;;;;;;;13.43;9.43;;;24.00;99.90;;;;;;5052356;28;20287;-51
2022/05/17 10:32:23;;;;;;;11.05;8.57;;;24.00;99.90;;;;;;5051359;28;20209;-51
2022/05/17 10:35:16;;;;;;;13.40;9.82;;;23.80;99.90;;;;;;5052404;28;20744;-51
2022/05/17 10:37:49;;;;;;;14.20;10.60;;;23.90;99.90;;;;;;5051830;28;20212;-51
2022/05/17 10:40:20;;;;;;;14.88;9.85;;;24.00;99.90;;;;;;5052774;28;20225;-51
2022/05/17 10:42:49;;;;;;;13.25;10.55;;;24.10;99.90;;;;;;5051122;28;20592;-51
2022/05/17 10:45:19;;;;;;;14.93;10.82;;;24.10;99.90;;;;;;5052172;28;20261;-51
2022/05/17 10:47:55;;;;;;;14.00;10.75;;;24.10;99.90;;;;;;5053371;28;20610;-51
2022/05/17 10:50:30;;;;;;;14.48;11.98;;;24.30;99.90;;;;;;5071833;28;20224;-51
2022/05/17 10:53:07;;;;;;;15.43;10.23;;;24.40;99.90;;;;;;5070973;28;20231;-51
2022/05/17 10:55:46;;;;;;;14.50;10.82;;;24.50;99.90;;;;;;5071982;28;20303;-51
2022/05/17 10:58:22;;;;;;;12.88;10.02;;;24.70;99.90;;;;;;5071793;28;20739;-51
2022/05/17 11:00:58;;;;;;;13.07;9.57;;;24.60;99.90;;;;;;5071791;28;20917;-51
2022/05/17 11:04:15;;;;;;;13.95;9.85;;;24.60;99.90;;;;;;5071619;28;20205;-51
2022/05/17 11:06:51;;;;;;;13.85;9.85;;;24.60;99.90;;;;;;5058934;28;20260;-51
2022/05/17 11:09:27;;;;;;;14.63;10.18;;;24.40;99.90;;;;;;5058294;28;20267;-51
2022/05/17 11:12:04;;;;;;;13.65;8.80;;;24.30;99.90;;;;;;5071324;28;20681;-51
2022/05/17 11:14:36;;;;;;;11.80;8.55;;;24.20;99.90;;;;;;5072512;28;20341;-51
2022/05/17 11:17:13;;;;;;;8.75;6.63;;;24.20;99.90;;;;;;5070952;28;20692;-50
2022/05/17 11:19:45;;;;;;;11.48;7.40;;;24.30;99.90;;;;;;5072150;28;20228;-51
2022/05/17 11:22:28;;;;;;;12.10;8.25;;;24.60;99.90;;;;;;5070126;28;20291;-51
2022/05/17 11:25:26;;;;;;;13.25;7.97;;;24.90;99.90;;;;;;5071751;28;20271;-51
2022/05/17 11:28:17;;;;;;;10.88;6.85;;;25.10;99.90;;;;;;5071843;28;20236;-51
2022/05/17 11:30:51;;;;;;;8.48;6.25;;;25.40;99.90;;;;;;5071547;28;20294;-51
2022/05/17 11:33:33;;;;;;;6.55;4.90;;;25.60;99.90;;;;;;5071588;28;20250;-51
2022/05/17 11:36:03;;;;;;;7.30;3.75;;;25.50;99.90;;;;;;5071973;28;20185;-51
2022/05/17 11:38:53;;;;;;;5.78;3.88;;;25.40;99.90;;;;;;5071177;28;20217;-51
2022/05/17 11:41:24;;;;;;;4.97;3.60;;;25.10;99.90;;;;;;5071982;28;20194;-51
2022/05/17 11:44:14;;;;;;;5.15;3.42;;;25.10;99.90;;;;;;5071354;28;20216;-51
2022/05/17 11:46:49;;;;;;;5.63;3.70;;;25.30;99.90;;;;;;5071445;28;20260;-51
2022/05/17 11:49:47;;;;;;;4.80;3.78;;;25.30;99.90;;;;;;5071732;28;20224;-51
2022/05/17 11:52:30;;;;;;;5.75;3.15;;;25.30;99.90;;;;;;5070790;28;20619;-51
2022/05/17 11:55:02;;;;;;;6.10;3.35;;;25.40;99.90;;;;;;5070179;28;20209;-51
2022/05/17 11:58:03;;;;;;;4.78;2.55;;;25.30;99.90;;;;;;5071609;28;20197;-51
2022/05/17 12:00:51;;;;;;;4.28;2.78;;;25.60;99.90;;;;;;5071405;28;20294;-51
2022/05/17 12:03:36;;;;;;;5.45;2.83;;;25.70;99.90;;;;;;5070850;28;20189;-51
2022/05/17 12:06:07;;;;;;;4.47;3.00;;;25.90;99.90;;;;;;5070531;28;20338;-51
2022/05/17 12:08:39;;;;;;;4.82;2.70;;;25.80;99.90;;;;;;5070992;28;20205;-51
2022/05/17 12:11:22;;;;;;;7.57;4.05;;;25.80;99.90;;;;;;5071005;28;20235;-51
2022/05/17 12:14:00;;;;;;;3.95;3.47;;;25.90;99.90;;;;;;5070546;28;20236;-51
2022/05/17 12:16:30;;;;;;;7.40;3.80;;;25.80;99.90;;;;;;5069965;28;20258;-51
2022/05/17 12:19:10;;;;;;;6.13;2.75;;;25.80;99.90;;;;;;5070553;28;20600;-51
2022/05/17 12:21:48;;;;;;;5.40;2.83;;;25.70;99.90;;;;;;5071033;28;20189;-51
2022/05/17 12:24:39;;;;;;;3.67;2.38;;;25.80;99.90;;;;;;5070347;28;20244;-51
2022/05/17 12:27:24;;;;;;;5.15;2.67;;;25.90;99.90;;;;;;5050855;28;20290;-51
2022/05/17 12:32:41;;;;;;;4.75;2.20;;;25.80;99.90;;;;;;5049996;28;20210;-51
2022/05/17 12:35:10;;;;;;;4.72;2.47;;;25.90;99.90;;;;;;5050096;28;20260;-51
2022/05/17 12:37:43;;;;;;;3.33;2.40;;;25.90;99.90;;;;;;5068598;28;20297;-51
2022/05/17 12:43:11;;;;;;;3.63;2.15;;;25.60;99.90;;;;;;5069670;28;20797;-51
2022/05/17 12:45:42;;;;;;;4.82;2.30;;;25.50;99.90;;;;;;5070383;28;20278;-51
2022/05/17 12:48:29;;;;;;;4.28;2.03;;;25.40;99.90;;;;;;5058153;28;20275;-51
2022/05/17 12:51:01;;;;;;;3.33;2.10;;;25.20;99.90;;;;;;5066685;28;20260;-50
2022/05/17 12:53:38;;;;;;;2.22;2.03;;;25.10;99.90;;;;;;5069306;28;20193;-51
2022/05/17 12:56:09;;;;;;;4.47;2.08;;;24.80;99.90;;;;;;5070263;28;20254;-51
2022/05/17 12:58:49;;;;;;;3.78;2.08;;;24.70;99.90;;;;;;5070004;28;20225;-51
2022/05/17 13:01:24;;;;;;;3.75;2.05;;;24.70;99.90;;;;;;5070270;28;20201;-50
2022/05/17 13:03:55;;;;;;;2.72;1.80;;;24.40;99.90;;;;;;5064645;28;20235;-51
2022/05/17 13:06:32;;;;;;;4.03;2.17;;;24.30;99.90;;;;;;5068838;28;20318;-51
2022/05/17 13:09:00;;;;;;;3.35;2.20;;;24.20;99.90;;;;;;5069472;28;20255;-51